createdAt,value
2017-07-25T00:00:54.986Z,0
2017-07-25T00:01:56.219Z,0
2017-07-25T00:02:57.563Z,0
2017-07-25T00:03:58.789Z,0
2017-07-25T00:05:00.061Z,0
2017-07-25T00:06:01.296Z,0
2017-07-25T00:07:02.532Z,0
2017-07-25T00:08:03.808Z,0
2017-07-25T00:09:05.046Z,0
2017-07-25T00:10:06.321Z,0
2017-07-25T00:11:07.633Z,0
2017-07-25T00:12:08.874Z,0
2017-07-25T00:13:10.097Z,0
2017-07-25T00:14:11.475Z,0
2017-07-25T00:15:12.622Z,0
2017-07-25T00:16:13.958Z,0
2017-07-25T00:17:15.242Z,0
2017-07-25T00:18:16.475Z,0
2017-07-25T00:19:17.718Z,0
2017-07-25T00:20:18.950Z,0
2017-07-25T00:21:20.192Z,0
2017-07-25T00:22:21.445Z,0
2017-07-25T00:23:22.683Z,0
2017-07-25T00:24:23.941Z,0
2017-07-25T00:25:25.158Z,0
2017-07-25T00:26:26.403Z,0
2017-07-25T00:27:27.640Z,0
2017-07-25T00:28:28.875Z,0
2017-07-25T00:29:30.144Z,0
2017-07-25T00:30:31.491Z,0
2017-07-25T00:31:32.765Z,0
2017-07-25T00:32:34.001Z,0
2017-07-25T00:33:35.271Z,0
2017-07-25T00:34:36.509Z,0
2017-07-25T00:35:37.748Z,0
2017-07-25T00:36:39.011Z,0
2017-07-25T00:37:40.260Z,0
2017-07-25T00:38:41.489Z,0
2017-07-25T00:39:42.728Z,0
2017-07-25T00:40:44.033Z,0
2017-07-25T00:41:45.407Z,0
2017-07-25T00:42:46.704Z,0
2017-07-25T00:43:47.936Z,0
2017-07-25T00:44:49.174Z,0
2017-07-25T00:45:50.404Z,0
2017-07-25T00:46:51.769Z,0
2017-07-25T00:47:52.989Z,0
2017-07-25T00:48:54.224Z,0
2017-07-25T00:49:55.463Z,0
2017-07-25T00:50:56.694Z,0
2017-07-25T00:51:57.940Z,0
2017-07-25T00:52:59.286Z,0
2017-07-25T00:54:00.532Z,0
2017-07-25T00:55:01.774Z,0
2017-07-25T00:56:03.014Z,0
2017-07-25T00:57:04.244Z,0
2017-07-25T00:58:05.476Z,0
2017-07-25T00:59:06.718Z,0
2017-07-25T01:00:07.983Z,0
2017-07-25T01:01:09.222Z,0
2017-07-25T01:02:10.523Z,0
2017-07-25T01:03:11.806Z,0
2017-07-25T01:04:13.041Z,0
2017-07-25T01:05:14.280Z,0
2017-07-25T01:06:15.525Z,0
2017-07-25T01:07:16.804Z,0
2017-07-25T01:08:18.073Z,0
2017-07-25T01:09:19.311Z,0
2017-07-25T01:10:20.562Z,0
2017-07-25T01:11:21.778Z,0
2017-07-25T01:12:23.015Z,0
2017-07-25T01:13:24.288Z,0
2017-07-25T01:14:25.572Z,0
2017-07-25T01:15:26.783Z,0
2017-07-25T01:16:28.044Z,0
2017-07-25T01:17:29.295Z,0
2017-07-25T01:18:30.529Z,0
2017-07-25T01:19:31.869Z,0
2017-07-25T01:20:33.096Z,0
2017-07-25T01:21:34.457Z,0
2017-07-25T01:22:35.762Z,0
2017-07-25T01:23:36.976Z,0
2017-07-25T01:24:38.208Z,0
2017-07-25T01:25:39.449Z,0
2017-07-25T01:26:40.717Z,0
2017-07-25T01:27:41.988Z,0
2017-07-25T01:28:43.223Z,0
2017-07-25T01:29:44.451Z,0
2017-07-25T01:30:45.868Z,0
2017-07-25T01:31:47.134Z,0
2017-07-25T01:32:48.350Z,0
2017-07-25T01:33:49.590Z,0
2017-07-25T01:34:50.824Z,0
2017-07-25T01:35:52.065Z,0
2017-07-25T01:36:53.305Z,0
2017-07-25T01:37:54.552Z,0
2017-07-25T01:38:55.773Z,0
2017-07-25T01:39:57.050Z,0
2017-07-25T01:40:58.299Z,0
2017-07-25T01:41:59.539Z,0
2017-07-25T01:43:00.779Z,0
2017-07-25T01:44:02.017Z,0
2017-07-25T01:45:03.262Z,0
2017-07-25T01:46:04.554Z,0
2017-07-25T01:47:05.827Z,0
2017-07-25T01:48:07.064Z,0
2017-07-25T01:49:08.311Z,0
2017-07-25T01:50:09.652Z,0
2017-07-25T01:51:10.886Z,0
2017-07-25T01:52:12.131Z,0
2017-07-25T01:53:13.588Z,0
2017-07-25T01:54:14.832Z,0
2017-07-25T01:55:16.075Z,0
2017-07-25T01:56:17.393Z,0
2017-07-25T01:57:18.675Z,0
2017-07-25T01:58:19.876Z,0
2017-07-25T01:59:21.110Z,0
2017-07-25T02:00:22.344Z,0
2017-07-25T02:01:23.577Z,0
2017-07-25T02:02:24.813Z,0
2017-07-25T02:03:26.065Z,0
2017-07-25T02:04:27.402Z,0
2017-07-25T02:05:28.641Z,0
2017-07-25T02:06:29.879Z,0
2017-07-25T02:07:31.117Z,0
2017-07-25T02:08:32.360Z,0
2017-07-25T02:09:33.595Z,0
2017-07-25T02:10:34.941Z,0
2017-07-25T02:11:36.193Z,0
2017-07-25T02:12:37.425Z,0
2017-07-25T02:13:38.664Z,0
2017-07-25T02:14:39.894Z,0
2017-07-25T02:15:41.129Z,0
2017-07-25T02:16:42.398Z,0
2017-07-25T02:17:43.741Z,0
2017-07-25T02:18:44.980Z,0
2017-07-25T02:19:46.265Z,0
2017-07-25T02:20:47.628Z,0
2017-07-25T02:21:48.765Z,0
2017-07-25T02:22:50.016Z,0
2017-07-25T02:23:51.265Z,0
2017-07-25T02:24:52.505Z,0
2017-07-25T02:25:53.867Z,0
2017-07-25T02:26:55.098Z,0
2017-07-25T02:27:56.330Z,0
2017-07-25T02:28:57.588Z,0
2017-07-25T02:29:58.823Z,0
2017-07-25T02:31:00.100Z,0
2017-07-25T02:32:01.344Z,0
2017-07-25T02:33:02.579Z,0
2017-07-25T02:34:03.819Z,0
2017-07-25T02:35:05.084Z,0
2017-07-25T02:36:06.313Z,0
2017-07-25T02:37:07.589Z,0
2017-07-25T02:38:08.831Z,0
2017-07-25T02:39:10.118Z,0
2017-07-25T02:40:11.361Z,0
2017-07-25T02:41:12.597Z,0
2017-07-25T02:42:13.819Z,0
2017-07-25T02:43:15.078Z,0
2017-07-25T02:44:16.355Z,0
2017-07-25T02:45:17.592Z,0
2017-07-25T02:46:18.824Z,0
2017-07-25T02:47:20.064Z,0
2017-07-25T02:48:21.375Z,0
2017-07-25T02:49:22.607Z,0
2017-07-25T02:50:23.832Z,0
2017-07-25T02:51:25.071Z,0
2017-07-25T02:52:26.319Z,0
2017-07-25T02:53:27.651Z,0
2017-07-25T02:54:28.890Z,0
2017-07-25T02:55:30.265Z,0
2017-07-25T02:56:31.559Z,0
2017-07-25T02:57:32.792Z,0
2017-07-25T02:58:34.032Z,0
2017-07-25T02:59:35.267Z,0
2017-07-25T03:00:36.502Z,0
2017-07-25T03:01:37.733Z,0
2017-07-25T03:02:38.962Z,0
2017-07-25T03:03:40.204Z,0
2017-07-25T03:04:41.437Z,0
2017-07-25T03:05:42.677Z,0
2017-07-25T03:06:43.922Z,0
2017-07-25T03:07:45.171Z,0
2017-07-25T03:08:46.454Z,0
2017-07-25T03:09:47.698Z,0
2017-07-25T03:10:48.932Z,0
2017-07-25T03:11:50.173Z,0
2017-07-25T03:12:51.419Z,0
2017-07-25T03:13:52.681Z,0
2017-07-25T03:14:53.918Z,0
2017-07-25T03:15:55.152Z,0
2017-07-25T03:16:56.397Z,0
2017-07-25T03:17:57.748Z,0
2017-07-25T03:18:58.988Z,0
2017-07-25T03:20:00.225Z,0
2017-07-25T03:21:01.483Z,0
2017-07-25T03:22:02.756Z,0
2017-07-25T03:23:04.039Z,0
2017-07-25T03:24:05.285Z,0
2017-07-25T03:25:06.517Z,0
2017-07-25T03:26:07.752Z,0
2017-07-25T03:27:09.013Z,0
2017-07-25T03:28:10.218Z,0
2017-07-25T03:29:11.546Z,0
2017-07-25T03:30:12.789Z,0
2017-07-25T03:31:14.034Z,0
2017-07-25T03:32:15.262Z,0
2017-07-25T03:33:16.608Z,0
2017-07-25T03:34:17.922Z,0
2017-07-25T03:35:19.159Z,0
2017-07-25T03:36:20.392Z,0
2017-07-25T03:37:21.648Z,0
2017-07-25T03:38:22.872Z,0
2017-07-25T03:39:24.109Z,0
2017-07-25T03:40:25.360Z,0
2017-07-25T03:41:26.597Z,0
2017-07-25T03:42:27.832Z,0
2017-07-25T03:43:29.065Z,0
2017-07-25T03:44:30.302Z,0
2017-07-25T03:45:31.557Z,0
2017-07-25T03:46:32.796Z,0
2017-07-25T03:47:34.095Z,0
2017-07-25T03:48:35.334Z,0
2017-07-25T03:49:36.571Z,0
2017-07-25T03:50:37.809Z,0
2017-07-25T03:51:39.039Z,0
2017-07-25T03:52:40.278Z,0
2017-07-25T03:53:41.553Z,0
2017-07-25T03:54:42.818Z,0
2017-07-25T03:55:44.157Z,0
2017-07-25T03:56:45.402Z,0
2017-07-25T03:57:46.645Z,0
2017-07-25T03:58:47.993Z,0
2017-07-25T03:59:49.302Z,0
2017-07-25T04:00:50.568Z,5
2017-07-25T04:01:51.810Z,5
2017-07-25T04:02:53.052Z,5
2017-07-25T04:03:54.279Z,5
2017-07-25T04:04:55.633Z,5
2017-07-25T04:05:56.897Z,5
2017-07-25T04:06:58.123Z,5
2017-07-25T04:07:59.428Z,5
2017-07-25T04:09:00.664Z,5
2017-07-25T04:10:01.901Z,5
2017-07-25T04:11:03.139Z,5
2017-07-25T04:12:04.381Z,5
2017-07-25T04:13:05.617Z,10
2017-07-25T04:14:06.856Z,10
2017-07-25T04:15:08.117Z,10
2017-07-25T04:16:09.355Z,10
2017-07-25T04:17:10.595Z,5
2017-07-25T04:18:11.848Z,10
2017-07-25T04:19:13.091Z,10
2017-07-25T04:20:14.354Z,10
2017-07-25T04:21:15.635Z,10
2017-07-25T04:22:16.894Z,10
2017-07-25T04:23:18.107Z,10
2017-07-25T04:24:19.422Z,15
2017-07-25T04:25:20.679Z,15
2017-07-25T04:26:21.905Z,20
2017-07-25T04:27:23.146Z,20
2017-07-25T04:28:24.385Z,25
2017-07-25T04:29:25.629Z,20
2017-07-25T04:30:26.861Z,20
2017-07-25T04:31:28.098Z,25
2017-07-25T04:32:29.335Z,20
2017-07-25T04:33:30.574Z,20
2017-07-25T04:34:31.808Z,20
2017-07-25T04:35:33.062Z,25
2017-07-25T04:36:34.308Z,25
2017-07-25T04:37:35.566Z,20
2017-07-25T04:38:36.775Z,20
2017-07-25T04:39:38.015Z,20
2017-07-25T04:40:39.324Z,25
2017-07-25T04:41:40.595Z,25
2017-07-25T04:42:41.831Z,25
2017-07-25T04:43:43.074Z,25
2017-07-25T04:44:44.313Z,25
2017-07-25T04:45:45.659Z,35
2017-07-25T04:46:46.932Z,35
2017-07-25T04:47:48.200Z,35
2017-07-25T04:48:49.439Z,35
2017-07-25T04:49:50.670Z,35
2017-07-25T04:50:51.984Z,40
2017-07-25T04:51:53.230Z,40
2017-07-25T04:52:54.483Z,45
2017-07-25T04:53:55.726Z,45
2017-07-25T04:54:56.960Z,45
2017-07-25T04:55:58.201Z,45
2017-07-25T04:56:59.446Z,50
2017-07-25T04:58:00.671Z,45
2017-07-25T04:59:02.017Z,40
2017-07-25T05:00:03.269Z,45
2017-07-25T05:01:04.494Z,45
2017-07-25T05:02:05.737Z,45
2017-07-25T05:03:06.977Z,35
2017-07-25T05:04:08.246Z,40
2017-07-25T05:05:09.542Z,55
2017-07-25T05:06:10.849Z,50
2017-07-25T05:07:12.067Z,45
2017-07-25T05:08:13.301Z,45
2017-07-25T05:09:14.540Z,40
2017-07-25T05:10:15.799Z,40
2017-07-25T05:11:17.061Z,40
2017-07-25T05:12:18.427Z,45
2017-07-25T05:13:19.672Z,50
2017-07-25T05:14:20.905Z,50
2017-07-25T05:15:22.138Z,50
2017-07-25T05:16:23.531Z,45
2017-07-25T05:17:24.770Z,40
2017-07-25T05:18:26.009Z,50
2017-07-25T05:19:27.254Z,45
2017-07-25T05:20:28.488Z,50
2017-07-25T05:21:29.781Z,55
2017-07-25T05:22:31.010Z,60
2017-07-25T05:23:32.277Z,65
2017-07-25T05:24:33.505Z,70
2017-07-25T05:25:34.744Z,70
2017-07-25T05:26:35.989Z,75
2017-07-25T05:27:37.222Z,75
2017-07-25T05:28:38.462Z,75
2017-07-25T05:29:39.704Z,75
2017-07-25T05:30:40.970Z,75
2017-07-25T05:31:42.232Z,75
2017-07-25T05:32:43.478Z,75
2017-07-25T05:33:44.720Z,80
2017-07-25T05:34:46.037Z,80
2017-07-25T05:35:47.265Z,80
2017-07-25T05:36:48.620Z,80
2017-07-25T05:37:49.898Z,80
2017-07-25T05:38:51.143Z,80
2017-07-25T05:39:52.367Z,80
2017-07-25T05:40:53.604Z,80
2017-07-25T05:41:54.841Z,90
2017-07-25T05:42:56.098Z,95
2017-07-25T05:43:57.350Z,95
2017-07-25T05:44:58.588Z,100
2017-07-25T05:45:59.877Z,100
2017-07-25T05:47:01.120Z,105
2017-07-25T05:48:02.367Z,105
2017-07-25T05:49:03.610Z,105
2017-07-25T05:50:04.847Z,110
2017-07-25T05:51:06.112Z,115
2017-07-25T05:52:07.341Z,120
2017-07-25T05:53:08.567Z,115
2017-07-25T05:54:09.882Z,110
2017-07-25T05:55:11.076Z,105
2017-07-25T05:56:12.403Z,105
2017-07-25T05:57:13.688Z,105
2017-07-25T05:58:14.927Z,105
2017-07-25T05:59:16.297Z,105
2017-07-25T06:00:17.533Z,105
2017-07-25T06:01:18.773Z,105
2017-07-25T06:02:20.014Z,105
2017-07-25T06:03:21.271Z,100
2017-07-25T06:04:22.556Z,100
2017-07-25T06:05:23.804Z,100
2017-07-25T06:06:25.041Z,90
2017-07-25T06:07:26.280Z,85
2017-07-25T06:08:27.520Z,80
2017-07-25T06:09:28.764Z,85
2017-07-25T06:10:30.050Z,90
2017-07-25T06:11:31.297Z,95
2017-07-25T06:12:32.536Z,105
2017-07-25T06:13:33.882Z,105
2017-07-25T06:14:35.344Z,110
2017-07-25T06:15:36.583Z,115
2017-07-25T06:16:37.842Z,115
2017-07-25T06:17:39.059Z,110
2017-07-25T06:18:40.300Z,95
2017-07-25T06:19:41.647Z,85
2017-07-25T06:20:42.868Z,85
2017-07-25T06:21:44.111Z,95
2017-07-25T06:22:45.356Z,100
2017-07-25T06:23:46.593Z,105
2017-07-25T06:24:47.831Z,105
2017-07-25T06:25:49.075Z,110
2017-07-25T06:26:50.316Z,115
2017-07-25T06:27:51.612Z,125
2017-07-25T06:28:52.930Z,130
2017-07-25T06:29:54.149Z,135
2017-07-25T06:30:55.390Z,135
2017-07-25T06:31:56.829Z,125
2017-07-25T06:32:58.100Z,120
2017-07-25T06:33:59.445Z,120
2017-07-25T06:35:00.687Z,120
2017-07-25T06:36:01.948Z,125
2017-07-25T06:37:03.183Z,130
2017-07-25T06:38:04.424Z,140
2017-07-25T06:39:05.944Z,145
2017-07-25T06:40:07.204Z,145
2017-07-25T06:41:08.551Z,140
2017-07-25T06:42:09.817Z,145
2017-07-25T06:43:11.033Z,140
2017-07-25T06:44:12.286Z,145
2017-07-25T06:45:13.596Z,150
2017-07-25T06:46:14.834Z,150
2017-07-25T06:47:16.103Z,150
2017-07-25T06:48:17.334Z,150
2017-07-25T06:49:18.570Z,145
2017-07-25T06:50:19.817Z,150
2017-07-25T06:51:21.163Z,155
2017-07-25T06:52:22.514Z,160
2017-07-25T06:53:23.897Z,160
2017-07-25T06:54:25.138Z,160
2017-07-25T06:55:26.377Z,160
2017-07-25T06:56:27.618Z,155
2017-07-25T06:57:28.874Z,160
2017-07-25T06:58:30.188Z,160
2017-07-25T06:59:31.430Z,150
2017-07-25T07:00:32.670Z,155
2017-07-25T07:01:33.905Z,160
2017-07-25T07:02:35.144Z,155
2017-07-25T07:03:36.385Z,155
2017-07-25T07:04:37.618Z,155
2017-07-25T07:05:38.859Z,150
2017-07-25T07:06:40.214Z,150
2017-07-25T07:07:41.449Z,145
2017-07-25T07:08:42.693Z,145
2017-07-25T07:09:43.939Z,135
2017-07-25T07:10:45.181Z,135
2017-07-25T07:11:46.427Z,135
2017-07-25T07:12:47.675Z,140
2017-07-25T07:13:48.922Z,130
2017-07-25T07:14:50.183Z,125
2017-07-25T07:15:51.441Z,125
2017-07-25T07:16:52.680Z,125
2017-07-25T07:17:53.912Z,125
2017-07-25T07:18:55.155Z,120
2017-07-25T07:19:56.448Z,120
2017-07-25T07:20:57.793Z,115
2017-07-25T07:21:58.954Z,115
2017-07-25T07:23:00.175Z,115
2017-07-25T07:24:01.417Z,120
2017-07-25T07:25:02.756Z,130
2017-07-25T07:26:03.993Z,150
2017-07-25T07:27:05.243Z,170
2017-07-25T07:28:06.490Z,190
2017-07-25T07:29:07.721Z,215
2017-07-25T07:30:08.976Z,230
2017-07-25T07:31:10.196Z,255
2017-07-25T07:32:11.454Z,280
2017-07-25T07:33:12.682Z,270
2017-07-25T07:34:13.980Z,280
2017-07-25T07:35:15.232Z,315
2017-07-25T07:36:16.746Z,345
2017-07-25T07:37:18.002Z,350
2017-07-25T07:38:19.248Z,350
2017-07-25T07:39:20.478Z,350
2017-07-25T07:40:21.779Z,355
2017-07-25T07:41:23.022Z,340
2017-07-25T07:42:24.282Z,300
2017-07-25T07:43:25.717Z,270
2017-07-25T07:44:26.958Z,265
2017-07-25T07:45:28.222Z,255
2017-07-25T07:46:29.470Z,245
2017-07-25T07:47:30.711Z,275
2017-07-25T07:48:32.053Z,325
2017-07-25T07:49:33.301Z,310
2017-07-25T07:50:34.541Z,255
2017-07-25T07:51:35.878Z,270
2017-07-25T07:52:37.127Z,320
2017-07-25T07:53:38.478Z,320
2017-07-25T07:54:39.939Z,300
2017-07-25T07:55:41.179Z,300
2017-07-25T07:56:42.416Z,290
2017-07-25T07:57:43.690Z,250
2017-07-25T07:58:44.924Z,260
2017-07-25T07:59:46.199Z,295
2017-07-25T08:00:47.452Z,240
2017-07-25T08:01:48.694Z,250
2017-07-25T08:02:50.035Z,300
2017-07-25T08:03:51.259Z,360
2017-07-25T08:04:52.499Z,380
2017-07-25T08:05:53.736Z,425
2017-07-25T08:06:54.979Z,475
2017-07-25T08:07:56.218Z,485
2017-07-25T08:08:57.453Z,475
2017-07-25T08:09:58.694Z,485
2017-07-25T08:11:00.047Z,480
2017-07-25T08:12:01.362Z,475
2017-07-25T08:13:02.627Z,465
2017-07-25T08:14:03.858Z,450
2017-07-25T08:15:05.098Z,420
2017-07-25T08:16:06.336Z,380
2017-07-25T08:17:07.662Z,390
2017-07-25T08:18:08.889Z,325
2017-07-25T08:19:10.224Z,295
2017-07-25T08:20:11.457Z,290
2017-07-25T08:21:12.705Z,295
2017-07-25T08:22:14.019Z,290
2017-07-25T08:23:15.247Z,325
2017-07-25T08:24:16.534Z,365
2017-07-25T08:25:17.811Z,410
2017-07-25T08:26:19.053Z,460
2017-07-25T08:27:20.358Z,545
2017-07-25T08:28:21.602Z,460
2017-07-25T08:29:22.854Z,380
2017-07-25T08:30:24.115Z,345
2017-07-25T08:31:25.360Z,360
2017-07-25T08:32:26.603Z,325
2017-07-25T08:33:27.928Z,320
2017-07-25T08:34:29.163Z,335
2017-07-25T08:35:30.406Z,355
2017-07-25T08:36:31.643Z,400
2017-07-25T08:37:32.882Z,405
2017-07-25T08:38:34.139Z,415
2017-07-25T08:39:35.393Z,415
2017-07-25T08:40:36.642Z,435
2017-07-25T08:41:37.980Z,470
2017-07-25T08:42:39.217Z,465
2017-07-25T08:43:40.466Z,365
2017-07-25T08:44:41.879Z,365
2017-07-25T08:45:43.113Z,365
2017-07-25T08:46:44.351Z,345
2017-07-25T08:47:45.751Z,365
2017-07-25T08:48:46.943Z,380
2017-07-25T08:49:48.198Z,400
2017-07-25T08:50:49.434Z,395
2017-07-25T08:51:50.722Z,375
2017-07-25T08:52:51.983Z,350
2017-07-25T08:53:53.215Z,360
2017-07-25T08:54:54.463Z,385
2017-07-25T08:55:55.749Z,420
2017-07-25T08:56:56.997Z,365
2017-07-25T08:57:58.245Z,455
2017-07-25T08:58:59.500Z,410
2017-07-25T09:00:00.724Z,405
2017-07-25T09:01:02.087Z,340
2017-07-25T09:02:03.371Z,375
2017-07-25T09:03:04.612Z,390
2017-07-25T09:04:05.869Z,355
2017-07-25T09:05:07.112Z,370
2017-07-25T09:06:08.355Z,335
2017-07-25T09:07:09.692Z,390
2017-07-25T09:08:10.942Z,440
2017-07-25T09:09:12.176Z,475
2017-07-25T09:10:13.417Z,510
2017-07-25T09:11:14.653Z,575
2017-07-25T09:12:15.883Z,585
2017-07-25T09:13:17.332Z,385
2017-07-25T09:14:18.612Z,310
2017-07-25T09:15:19.922Z,310
2017-07-25T09:16:21.160Z,270
2017-07-25T09:17:22.506Z,165
2017-07-25T09:18:23.763Z,120
2017-07-25T09:19:25.003Z,115
2017-07-25T09:20:26.257Z,125
2017-07-25T09:21:27.580Z,145
2017-07-25T09:22:28.824Z,150
2017-07-25T09:23:30.060Z,190
2017-07-25T09:24:31.299Z,260
2017-07-25T09:25:32.552Z,280
2017-07-25T09:26:33.804Z,270
2017-07-25T09:27:35.046Z,275
2017-07-25T09:28:36.376Z,285
2017-07-25T09:29:37.629Z,295
2017-07-25T09:30:38.858Z,295
2017-07-25T09:31:40.105Z,290
2017-07-25T09:32:41.346Z,305
2017-07-25T09:33:42.672Z,275
2017-07-25T09:34:43.903Z,325
2017-07-25T09:35:45.159Z,300
2017-07-25T09:36:46.400Z,290
2017-07-25T09:37:47.785Z,305
2017-07-25T09:38:48.926Z,320
2017-07-25T09:39:50.219Z,340
2017-07-25T09:40:51.516Z,340
2017-07-25T09:41:52.765Z,340
2017-07-25T09:42:54.028Z,325
2017-07-25T09:43:55.255Z,330
2017-07-25T09:44:56.618Z,345
2017-07-25T09:45:57.851Z,330
2017-07-25T09:46:59.103Z,330
2017-07-25T09:48:00.348Z,320
2017-07-25T09:49:01.583Z,320
2017-07-25T09:50:02.822Z,290
2017-07-25T09:51:04.103Z,360
2017-07-25T09:52:05.414Z,370
2017-07-25T09:53:06.659Z,300
2017-07-25T09:54:07.915Z,240
2017-07-25T09:55:09.184Z,260
2017-07-25T09:56:10.657Z,270
2017-07-25T09:57:11.974Z,270
2017-07-25T09:58:13.211Z,300
2017-07-25T09:59:14.455Z,290
2017-07-25T10:00:15.702Z,295
2017-07-25T10:01:16.942Z,290
2017-07-25T10:02:18.245Z,270
2017-07-25T10:03:19.552Z,255
2017-07-25T10:04:20.816Z,255
2017-07-25T10:05:22.051Z,225
2017-07-25T10:06:23.466Z,230
2017-07-25T10:07:24.703Z,200
2017-07-25T10:08:25.942Z,195
2017-07-25T10:09:27.365Z,195
2017-07-25T10:10:28.502Z,175
2017-07-25T10:11:29.766Z,125
2017-07-25T10:12:31.020Z,95
2017-07-25T10:13:32.239Z,105
2017-07-25T10:14:33.486Z,90
2017-07-25T10:15:34.842Z,80
2017-07-25T10:16:36.390Z,70
2017-07-25T10:17:37.627Z,75
2017-07-25T10:18:38.866Z,110
2017-07-25T10:19:40.178Z,175
2017-07-25T10:20:41.506Z,240
2017-07-25T10:21:42.734Z,340
2017-07-25T10:22:43.972Z,245
2017-07-25T10:23:45.219Z,280
2017-07-25T10:24:46.481Z,335
2017-07-25T10:25:47.728Z,240
2017-07-25T10:26:48.968Z,285
2017-07-25T10:27:50.211Z,305
2017-07-25T10:28:51.478Z,360
2017-07-25T10:29:52.717Z,385
2017-07-25T10:30:54.034Z,330
2017-07-25T10:31:55.249Z,325
2017-07-25T10:32:56.492Z,370
2017-07-25T10:33:57.773Z,335
2017-07-25T10:34:58.992Z,365
2017-07-25T10:36:00.244Z,450
2017-07-25T10:37:01.482Z,480
2017-07-25T10:38:02.750Z,495
2017-07-25T10:39:03.998Z,560
2017-07-25T10:40:05.567Z,555
2017-07-25T10:41:06.821Z,545
2017-07-25T10:42:08.065Z,530
2017-07-25T10:43:09.327Z,465
2017-07-25T10:44:10.543Z,450
2017-07-25T10:45:11.802Z,415
2017-07-25T10:46:13.023Z,445
2017-07-25T10:47:14.476Z,460
2017-07-25T10:48:15.752Z,455
2017-07-25T10:49:16.964Z,480
2017-07-25T10:50:18.209Z,435
2017-07-25T10:51:19.446Z,370
2017-07-25T10:52:20.718Z,345
2017-07-25T10:53:22.586Z,310
2017-07-25T10:54:23.826Z,265
2017-07-25T10:55:25.072Z,225
2017-07-25T10:56:26.306Z,210
2017-07-25T10:57:27.671Z,215
2017-07-25T10:58:28.902Z,240
2017-07-25T10:59:30.141Z,255
2017-07-25T11:00:31.380Z,300
2017-07-25T11:01:32.639Z,270
2017-07-25T11:02:34.060Z,280
2017-07-25T11:03:35.297Z,315
2017-07-25T11:04:36.568Z,335
2017-07-25T11:05:37.809Z,385
2017-07-25T11:06:39.056Z,420
2017-07-25T11:07:40.319Z,525
2017-07-25T11:08:41.614Z,430
2017-07-25T11:09:42.854Z,485
2017-07-25T11:10:44.112Z,455
2017-07-25T11:11:45.355Z,460
2017-07-25T11:12:46.597Z,450
2017-07-25T11:13:47.969Z,460
2017-07-25T11:14:49.194Z,500
2017-07-25T11:15:50.459Z,500
2017-07-25T11:16:51.916Z,430
2017-07-25T11:17:53.186Z,500
2017-07-25T11:18:54.414Z,535
2017-07-25T11:19:55.667Z,550
2017-07-25T11:20:56.894Z,540
2017-07-25T11:21:58.157Z,545
2017-07-25T11:22:59.395Z,615
2017-07-25T11:24:00.639Z,545
2017-07-25T11:25:01.897Z,590
2017-07-25T11:26:03.201Z,470
2017-07-25T11:27:04.477Z,805
2017-07-25T11:28:05.723Z,860
2017-07-25T11:29:07.022Z,915
2017-07-25T11:30:08.265Z,850
2017-07-25T11:31:09.516Z,825
2017-07-25T11:32:10.749Z,830
2017-07-25T11:33:11.990Z,815
2017-07-25T11:34:13.262Z,765
2017-07-25T11:35:14.490Z,750
2017-07-25T11:36:15.859Z,605
2017-07-25T11:37:17.098Z,665
2017-07-25T11:38:18.340Z,665
2017-07-25T11:39:19.621Z,695
2017-07-25T11:40:20.858Z,595
2017-07-25T11:41:22.168Z,625
2017-07-25T11:42:23.407Z,545
2017-07-25T11:43:24.648Z,600
2017-07-25T11:44:25.934Z,515
2017-07-25T11:45:27.177Z,475
2017-07-25T11:46:28.421Z,530
2017-07-25T11:47:29.659Z,600
2017-07-25T11:48:30.939Z,750
2017-07-25T11:49:32.238Z,860
2017-07-25T11:50:33.480Z,895
2017-07-25T11:51:34.746Z,855
2017-07-25T11:52:35.988Z,825
2017-07-25T11:53:37.327Z,820
2017-07-25T11:54:38.568Z,845
2017-07-25T11:55:39.809Z,800
2017-07-25T11:56:41.054Z,745
2017-07-25T11:57:42.307Z,760
2017-07-25T11:58:43.595Z,800
2017-07-25T11:59:44.843Z,815
2017-07-25T12:00:46.082Z,800
2017-07-25T12:01:47.324Z,775
2017-07-25T12:02:48.562Z,705
2017-07-25T12:03:49.849Z,740
2017-07-25T12:04:51.054Z,715
2017-07-25T12:05:52.309Z,685
2017-07-25T12:06:53.568Z,610
2017-07-25T12:07:54.812Z,485
2017-07-25T12:08:56.057Z,325
2017-07-25T12:09:57.313Z,265
2017-07-25T12:10:58.551Z,290
2017-07-25T12:11:59.856Z,380
2017-07-25T12:13:01.117Z,505
2017-07-25T12:14:02.508Z,535
2017-07-25T12:15:03.750Z,545
2017-07-25T12:16:04.988Z,530
2017-07-25T12:17:06.468Z,490
2017-07-25T12:18:07.829Z,495
2017-07-25T12:19:09.067Z,585
2017-07-25T12:20:10.328Z,675
2017-07-25T12:21:11.563Z,710
2017-07-25T12:22:12.804Z,705
2017-07-25T12:23:14.049Z,700
2017-07-25T12:24:15.394Z,700
2017-07-25T12:25:16.645Z,700
2017-07-25T12:26:17.906Z,695
2017-07-25T12:27:19.137Z,690
2017-07-25T12:28:20.388Z,685
2017-07-25T12:29:21.653Z,675
2017-07-25T12:30:22.888Z,665
2017-07-25T12:31:24.135Z,655
2017-07-25T12:32:25.373Z,640
2017-07-25T12:33:26.625Z,620
2017-07-25T12:34:27.910Z,600
2017-07-25T12:35:29.143Z,585
2017-07-25T12:36:30.378Z,580
2017-07-25T12:37:31.617Z,585
2017-07-25T12:38:32.868Z,560
2017-07-25T12:39:34.118Z,625
2017-07-25T12:40:35.364Z,655
2017-07-25T12:41:36.598Z,660
2017-07-25T12:42:37.846Z,675
2017-07-25T12:43:39.127Z,675
2017-07-25T12:44:40.389Z,665
2017-07-25T12:45:41.626Z,650
2017-07-25T12:46:42.859Z,635
2017-07-25T12:47:44.122Z,600
2017-07-25T12:48:45.361Z,575
2017-07-25T12:49:46.632Z,560
2017-07-25T12:50:47.852Z,525
2017-07-25T12:51:49.101Z,495
2017-07-25T12:52:50.399Z,475
2017-07-25T12:53:51.640Z,445
2017-07-25T12:54:52.877Z,430
2017-07-25T12:55:54.132Z,425
2017-07-25T12:56:55.377Z,435
2017-07-25T12:57:56.682Z,440
2017-07-25T12:58:57.954Z,450
2017-07-25T12:59:59.172Z,475
2017-07-25T13:01:00.416Z,480
2017-07-25T13:02:01.672Z,490
2017-07-25T13:03:02.923Z,530
2017-07-25T13:04:04.404Z,555
2017-07-25T13:05:05.639Z,565
2017-07-25T13:06:06.886Z,600
2017-07-25T13:07:08.137Z,630
2017-07-25T13:08:09.501Z,650
2017-07-25T13:09:10.761Z,655
2017-07-25T13:10:11.993Z,610
2017-07-25T13:11:13.233Z,540
2017-07-25T13:12:14.469Z,410
2017-07-25T13:13:15.831Z,235
2017-07-25T13:14:17.067Z,360
2017-07-25T13:15:18.316Z,380
2017-07-25T13:16:19.562Z,435
2017-07-25T13:17:20.808Z,435
2017-07-25T13:18:22.039Z,430
2017-07-25T13:19:23.291Z,365
2017-07-25T13:20:24.523Z,330
2017-07-25T13:21:25.782Z,310
2017-07-25T13:22:27.027Z,260
2017-07-25T13:23:28.357Z,240
2017-07-25T13:24:29.600Z,225
2017-07-25T13:25:30.838Z,220
2017-07-25T13:26:32.128Z,210
2017-07-25T13:27:33.390Z,215
2017-07-25T13:28:34.620Z,225
2017-07-25T13:29:35.882Z,240
2017-07-25T13:30:37.115Z,265
2017-07-25T13:31:38.396Z,285
2017-07-25T13:32:39.777Z,315
2017-07-25T13:33:40.984Z,345
2017-07-25T13:34:42.232Z,355
2017-07-25T13:35:43.462Z,360
2017-07-25T13:36:44.717Z,365
2017-07-25T13:37:45.951Z,370
2017-07-25T13:38:47.195Z,375
2017-07-25T13:39:48.459Z,385
2017-07-25T13:40:49.687Z,405
2017-07-25T13:41:50.939Z,430
2017-07-25T13:42:52.181Z,460
2017-07-25T13:43:53.450Z,480
2017-07-25T13:44:54.693Z,495
2017-07-25T13:45:55.935Z,500
2017-07-25T13:46:57.225Z,500
2017-07-25T13:47:58.499Z,500
2017-07-25T13:48:59.755Z,470
2017-07-25T13:50:00.990Z,330
2017-07-25T13:51:02.294Z,230
2017-07-25T13:52:03.528Z,230
2017-07-25T13:53:04.801Z,260
2017-07-25T13:54:06.064Z,395
2017-07-25T13:55:07.313Z,400
2017-07-25T13:56:08.555Z,470
2017-07-25T13:57:09.812Z,470
2017-07-25T13:58:11.033Z,385
2017-07-25T13:59:12.274Z,285
2017-07-25T14:00:13.514Z,295
2017-07-25T14:01:14.753Z,325
2017-07-25T14:02:16.004Z,275
2017-07-25T14:03:17.240Z,230
2017-07-25T14:04:18.478Z,215
2017-07-25T14:05:19.822Z,170
2017-07-25T14:06:21.054Z,115
2017-07-25T14:07:22.292Z,110
2017-07-25T14:08:23.524Z,155
2017-07-25T14:09:24.762Z,235
2017-07-25T14:10:26.180Z,245
2017-07-25T14:11:27.326Z,295
2017-07-25T14:12:28.611Z,335
2017-07-25T14:13:29.854Z,330
2017-07-25T14:14:31.092Z,315
2017-07-25T14:15:32.338Z,285
2017-07-25T14:16:33.585Z,250
2017-07-25T14:17:34.810Z,235
2017-07-25T14:18:36.137Z,255
2017-07-25T14:19:37.377Z,235
2017-07-25T14:20:38.628Z,250
2017-07-25T14:21:39.861Z,215
2017-07-25T14:22:41.121Z,200
2017-07-25T14:23:42.364Z,195
2017-07-25T14:24:43.710Z,190